Time;durP1;ratioP1;P1;durP2;ratioP2;P2;SDS_P1;SDS_P2;PMS_P1;PMS_P2;Temp;Humidity;BMP_temperature;BMP_pressure;BME280_temperature;BME280_humidity;BME280_pressure;Samples;Min_cycle;Max_cycle;Signal;HPM_P1;HPM_P2
2022/08/12 00:42:52;;;;;;;9.48;4.97;;;24.50;93.60;;;;;;4989636;28;20620;-65
2022/08/12 00:45:19;;;;;;;6.43;3.95;;;24.40;93.70;;;;;;4989232;28;20548;-65
2022/08/12 00:47:45;;;;;;;8.75;4.25;;;24.40;93.80;;;;;;4971572;28;20633;-65
2022/08/12 00:50:17;;;;;;;6.68;4.10;;;24.40;93.90;;;;;;5013179;28;20255;-65
2022/08/12 00:52:46;;;;;;;6.32;3.95;;;24.40;94.10;;;;;;4974204;28;20656;-65
2022/08/12 00:55:12;;;;;;;10.05;4.40;;;24.30;94.20;;;;;;4997953;28;20185;-66
2022/08/12 00:57:46;;;;;;;6.40;4.38;;;24.30;94.30;;;;;;4990538;28;20177;-64
2022/08/12 01:00:21;;;;;;;12.75;4.20;;;24.30;94.40;;;;;;4974123;28;20707;-64
2022/08/12 01:02:51;;;;;;;11.13;4.90;;;24.30;94.60;;;;;;4988487;28;20274;-64
2022/08/12 01:13:46;;;;;;;10.90;4.72;;;24.10;95.40;;;;;;4990569;28;20192;-64
2022/08/12 01:16:21;;;;;;;6.68;4.72;;;24.00;95.60;;;;;;4989952;28;22108;-64
2022/08/12 01:18:48;;;;;;;7.68;4.47;;;24.00;95.90;;;;;;4996537;28;20206;-63
2022/08/12 01:21:26;;;;;;;10.48;4.82;;;24.00;96.00;;;;;;4988916;28;20642;-64
2022/08/12 01:24:33;;;;;;;8.52;4.80;;;23.90;96.20;;;;;;4999949;28;20212;-64
2022/08/12 01:27:03;;;;;;;9.38;4.80;;;23.80;96.30;;;;;;4993859;28;20248;-63
2022/08/12 01:29:33;;;;;;;9.45;5.43;;;23.80;96.60;;;;;;4991217;28;20185;-65
2022/08/12 01:32:04;;;;;;;7.43;4.88;;;23.70;96.90;;;;;;4988756;28;20193;-63
2022/08/12 01:34:35;;;;;;;8.43;5.10;;;23.60;97.10;;;;;;4986819;28;20192;-62
2022/08/12 01:37:02;;;;;;;15.82;5.22;;;23.60;97.50;;;;;;4981734;28;20201;-65
2022/08/12 01:39:34;;;;;;;13.20;5.40;;;23.50;97.70;;;;;;4999089;28;20180;-64
2022/08/12 01:42:04;;;;;;;10.52;5.30;;;23.40;98.00;;;;;;4974114;28;20182;-64
2022/08/12 01:44:31;;;;;;;10.90;5.38;;;23.40;98.20;;;;;;4990046;28;20540;-65
2022/08/12 01:47:23;;;;;;;10.50;5.53;;;23.30;98.40;;;;;;5007659;28;20534;-66
2022/08/12 01:50:17;;;;;;;10.63;5.30;;;23.30;98.60;;;;;;4961767;28;20272;-65
2022/08/12 01:53:09;;;;;;;10.82;5.38;;;23.30;98.60;;;;;;4990459;28;20189;-64
2022/08/12 01:55:39;;;;;;;11.27;5.70;;;23.30;98.70;;;;;;4997633;28;20660;-63
2022/08/12 01:59:44;;;;;;;13.75;5.75;;;23.30;98.70;;;;;;4984641;28;20260;-64
2022/08/12 02:01:19;;;;;;;10.73;5.97;;;23.20;98.80;;;;;;4990357;28;20244;-65
2022/08/12 02:13:08;;;;;;;9.95;6.13;;;23.00;98.90;;;;;;4992480;28;20185;-65
2022/08/12 02:15:56;;;;;;;10.25;6.03;;;23.00;99.00;;;;;;4992898;28;20672;-65
2022/08/12 02:18:48;;;;;;;10.30;6.40;;;23.00;98.90;;;;;;4980977;28;20561;-65
2022/08/12 02:21:40;;;;;;;8.68;6.18;;;23.00;99.00;;;;;;4998435;28;20212;-65
2022/08/12 02:24:11;;;;;;;10.07;6.40;;;23.00;99.10;;;;;;4992230;28;20217;-67
2022/08/12 02:26:39;;;;;;;11.25;6.50;;;22.90;99.10;;;;;;4995297;28;20724;-65
2022/08/12 02:29:06;;;;;;;10.00;6.55;;;22.90;99.10;;;;;;4994288;28;20664;-65
2022/08/12 02:31:36;;;;;;;12.88;7.18;;;22.90;99.20;;;;;;4992928;28;20193;-65
2022/08/12 02:34:01;;;;;;;10.45;6.20;;;22.90;99.20;;;;;;5004704;28;20195;-65
2022/08/12 02:36:30;;;;;;;10.90;6.68;;;22.90;99.30;;;;;;5021472;28;20264;-65
2022/08/12 02:38:57;;;;;;;12.98;6.70;;;22.90;99.30;;;;;;4994715;28;20193;-65
2022/08/12 02:41:25;;;;;;;9.43;6.90;;;22.90;99.40;;;;;;4992940;28;20295;-64
2022/08/12 02:43:58;;;;;;;13.02;6.75;;;22.80;99.50;;;;;;4992293;28;20240;-65
2022/08/12 02:46:33;;;;;;;10.98;7.07;;;22.80;99.50;;;;;;4994920;28;20204;-65
2022/08/12 02:49:08;;;;;;;11.00;7.35;;;22.70;99.60;;;;;;4987182;28;20543;-65
2022/08/12 02:51:41;;;;;;;9.25;7.03;;;22.70;99.80;;;;;;5001220;28;20189;-65
2022/08/12 02:54:07;;;;;;;10.10;7.30;;;22.70;99.90;;;;;;4977693;28;20205;-63
2022/08/12 02:56:41;;;;;;;15.02;7.85;;;22.60;99.90;;;;;;4995010;28;20235;-64
2022/08/12 02:59:15;;;;;;;12.90;7.45;;;22.60;99.90;;;;;;5005548;28;20195;-64
2022/08/12 03:02:09;;;;;;;10.20;7.43;;;22.50;99.90;;;;;;4993376;28;20618;-63
2022/08/12 03:04:55;;;;;;;13.90;7.78;;;22.50;99.90;;;;;;4975213;28;20223;-63
2022/08/12 03:07:24;;;;;;;10.35;7.53;;;22.40;99.90;;;;;;4980316;28;20208;-64
2022/08/12 03:10:00;;;;;;;14.20;7.22;;;22.40;99.90;;;;;;5007870;28;20239;-65
2022/08/12 03:12:28;;;;;;;11.38;7.57;;;22.40;99.90;;;;;;4977138;28;20680;-64
2022/08/12 03:14:55;;;;;;;14.07;7.75;;;22.40;99.90;;;;;;4993205;28;20197;-63
2022/08/12 03:17:33;;;;;;;11.07;7.65;;;22.40;99.90;;;;;;4994739;28;20196;-64
2022/08/12 03:19:59;;;;;;;11.05;7.80;;;22.30;99.90;;;;;;5013597;28;20185;-65
2022/08/12 03:22:25;;;;;;;10.48;7.53;;;22.20;99.90;;;;;;4993792;28;20229;-64
2022/08/12 03:24:52;;;;;;;12.70;8.25;;;22.20;99.90;;;;;;4983345;28;20215;-63
2022/08/12 03:27:18;;;;;;;11.55;8.15;;;22.20;99.90;;;;;;4994559;28;20197;-64
2022/08/12 03:29:49;;;;;;;19.45;8.13;;;22.20;99.90;;;;;;5009802;28;20196;-64
2022/08/12 03:32:18;;;;;;;11.00;8.40;;;22.10;99.90;;;;;;4993600;28;20203;-64
2022/08/12 03:34:49;;;;;;;11.23;8.10;;;22.10;99.90;;;;;;4975610;28;20558;-64
2022/08/12 03:37:19;;;;;;;12.20;7.93;;;22.10;99.90;;;;;;4992839;28;20181;-64
2022/08/12 03:39:45;;;;;;;13.45;8.18;;;22.10;99.90;;;;;;4974416;28;20189;-64
2022/08/12 03:42:50;;;;;;;12.70;7.97;;;22.00;99.90;;;;;;4993192;28;20181;-64
2022/08/12 04:01:58;;;;;;;14.65;8.43;;;21.80;99.90;;;;;;4992661;28;20185;-64
2022/08/12 04:04:33;;;;;;;10.88;8.25;;;21.70;99.90;;;;;;4991376;28;20332;-65
2022/08/12 04:07:07;;;;;;;12.15;8.55;;;21.70;99.90;;;;;;4993292;28;20184;-65
2022/08/12 04:09:34;;;;;;;16.65;7.90;;;21.70;99.90;;;;;;4991124;28;20185;-65
2022/08/12 04:14:46;;;;;;;12.45;8.98;;;21.70;99.90;;;;;;4987286;28;20192;-68
2022/08/12 04:17:13;;;;;;;13.32;7.97;;;21.70;99.90;;;;;;4975221;28;20193;-64
2022/08/12 04:19:39;;;;;;;12.35;8.50;;;21.70;99.90;;;;;;4988418;28;20196;-65
2022/08/12 04:22:05;;;;;;;11.50;8.63;;;21.70;99.90;;;;;;4974130;28;20323;-67
2022/08/12 04:24:35;;;;;;;16.33;8.80;;;21.70;99.90;;;;;;5007204;28;20549;-65
2022/08/12 04:27:06;;;;;;;12.60;8.80;;;21.70;99.90;;;;;;5000161;28;20177;-64
2022/08/12 04:29:33;;;;;;;14.02;8.90;;;21.70;99.90;;;;;;5007414;28;20181;-65
2022/08/12 04:31:59;;;;;;;14.38;8.80;;;21.70;99.90;;;;;;4996081;28;20216;-64
2022/08/12 04:34:27;;;;;;;14.68;9.10;;;21.70;99.90;;;;;;4976390;28;20287;-64
2022/08/12 04:36:53;;;;;;;12.02;8.73;;;21.70;99.90;;;;;;4993955;28;20211;-65
2022/08/12 04:39:23;;;;;;;17.02;8.98;;;21.60;99.90;;;;;;4991156;28;20617;-63
2022/08/12 04:41:49;;;;;;;13.38;9.05;;;21.60;99.90;;;;;;4991185;28;20217;-64
2022/08/12 04:44:15;;;;;;;15.88;8.68;;;21.60;99.90;;;;;;4977850;28;20706;-64
2022/08/12 04:46:41;;;;;;;16.98;9.80;;;21.60;99.90;;;;;;4991498;28;20189;-65
2022/08/12 04:49:07;;;;;;;17.52;8.88;;;21.60;99.90;;;;;;4999618;28;20212;-59
2022/08/12 04:51:34;;;;;;;16.55;9.60;;;21.60;99.90;;;;;;4975409;28;20705;-60
2022/08/12 04:54:04;;;;;;;11.52;8.93;;;21.60;99.90;;;;;;4963993;28;20213;-60
2022/08/12 04:56:31;;;;;;;19.90;9.32;;;21.50;99.90;;;;;;4992850;28;20173;-58
2022/08/12 04:58:59;;;;;;;13.40;8.88;;;21.50;99.90;;;;;;5002308;28;20230;-61
2022/08/12 05:01:31;;;;;;;14.93;8.57;;;21.60;99.90;;;;;;4995453;28;20208;-62
2022/08/12 05:03:58;;;;;;;14.43;9.10;;;21.60;99.90;;;;;;5020843;28;20214;-58
2022/08/12 05:06:25;;;;;;;14.05;9.30;;;21.60;99.90;;;;;;4992392;28;20231;-60
2022/08/12 05:08:55;;;;;;;10.80;9.25;;;21.60;99.90;;;;;;5000066;28;20231;-60
2022/08/12 05:11:23;;;;;;;13.73;8.95;;;21.60;99.90;;;;;;4971231;28;20185;-59
2022/08/12 05:13:52;;;;;;;13.07;9.00;;;21.60;99.90;;;;;;4982253;28;20604;-60
2022/08/12 05:16:17;;;;;;;19.95;9.32;;;21.60;99.90;;;;;;4994321;28;20186;-60
2022/08/12 05:18:43;;;;;;;13.75;9.48;;;21.60;99.90;;;;;;5000208;28;20192;-63
2022/08/12 05:21:09;;;;;;;12.77;9.18;;;21.70;99.90;;;;;;5007789;28;20243;-63
2022/08/12 05:29:15;;;;;;;11.85;8.85;;;21.70;99.90;;;;;;5443640;23;20482;-60
2022/08/12 05:31:41;;;;;;;12.85;9.30;;;21.70;99.90;;;;;;4962875;28;20181;-59
2022/08/12 05:34:13;;;;;;;13.63;9.18;;;21.70;99.90;;;;;;4972095;28;20243;-58
2022/08/12 05:36:43;;;;;;;16.95;9.30;;;21.80;99.90;;;;;;4976684;28;20181;-60
2022/08/12 05:39:10;;;;;;;17.52;9.38;;;21.80;99.90;;;;;;4993760;28;20210;-63
2022/08/12 05:41:36;;;;;;;15.43;9.23;;;21.80;99.90;;;;;;4976900;28;20240;-61
2022/08/12 05:44:15;;;;;;;18.23;9.25;;;21.80;99.90;;;;;;4972742;28;20221;-63
2022/08/12 05:46:41;;;;;;;15.32;9.93;;;21.90;99.90;;;;;;4976901;28;20188;-62
2022/08/12 05:49:08;;;;;;;13.70;9.25;;;21.90;99.90;;;;;;4980152;28;20189;-63
2022/08/12 05:51:36;;;;;;;18.60;10.02;;;21.90;99.90;;;;;;4970168;28;20186;-63
2022/08/12 05:54:02;;;;;;;15.48;8.85;;;21.90;99.90;;;;;;4976702;28;20228;-60
2022/08/12 05:56:31;;;;;;;16.13;9.57;;;22.00;99.90;;;;;;4971452;28;20209;-60
2022/08/12 05:58:59;;;;;;;15.23;8.93;;;22.00;99.90;;;;;;4974536;28;20653;-60
2022/08/12 06:01:26;;;;;;;11.93;8.88;;;22.00;99.90;;;;;;4975292;28;20181;-62
2022/08/12 06:03:53;;;;;;;15.82;9.00;;;22.00;99.90;;;;;;4983846;28;20239;-62
2022/08/12 06:06:19;;;;;;;14.13;9.13;;;22.10;99.90;;;;;;4959259;28;20198;-61
2022/08/12 06:08:52;;;;;;;21.02;9.68;;;22.10;99.90;;;;;;4985536;28;20197;-61
2022/08/12 06:11:22;;;;;;;17.60;9.50;;;22.10;99.90;;;;;;4973428;28;20214;-60
2022/08/12 06:13:49;;;;;;;17.05;10.00;;;22.10;99.90;;;;;;4972246;28;20182;-62
2022/08/12 06:16:17;;;;;;;17.42;8.95;;;22.20;99.90;;;;;;4976154;28;20673;-61
2022/08/12 06:18:43;;;;;;;12.13;9.68;;;22.20;99.90;;;;;;4995904;28;20177;-60
2022/08/12 06:21:14;;;;;;;16.70;9.00;;;22.20;99.90;;;;;;4965232;28;20586;-62
2022/08/12 06:23:42;;;;;;;17.13;9.02;;;22.30;99.90;;;;;;4972971;28;20205;-61
2022/08/12 06:26:11;;;;;;;14.13;9.02;;;22.30;99.90;;;;;;4972807;28;20592;-60
2022/08/12 06:28:49;;;;;;;14.50;9.07;;;22.30;99.90;;;;;;4974050;28;20253;-64
2022/08/12 06:31:17;;;;;;;13.63;8.98;;;22.40;99.90;;;;;;4974392;28;20193;-59
2022/08/12 06:33:46;;;;;;;19.70;9.27;;;22.40;99.90;;;;;;4976529;28;20277;-60
2022/08/12 06:36:13;;;;;;;14.20;9.10;;;22.50;99.90;;;;;;4972234;28;20198;-60
2022/08/12 06:38:40;;;;;;;14.77;9.05;;;22.50;99.90;;;;;;4975379;28;20193;-60
2022/08/12 06:43:52;;;;;;;15.85;8.15;;;22.60;99.90;;;;;;4963783;28;20300;-60
2022/08/12 06:46:23;;;;;;;18.65;8.57;;;22.60;99.90;;;;;;4971972;28;20248;-58
2022/08/12 06:48:55;;;;;;;14.70;8.10;;;22.70;99.90;;;;;;4961010;28;20248;-61
2022/08/12 06:51:22;;;;;;;20.98;8.63;;;22.70;99.90;;;;;;4971726;28;20643;-62
2022/08/12 06:53:48;;;;;;;13.20;7.72;;;22.80;99.90;;;;;;4975999;28;20603;-62
2022/08/12 06:56:13;;;;;;;12.88;7.47;;;22.80;99.90;;;;;;4973643;28;20201;-60
2022/08/12 06:58:39;;;;;;;13.07;7.45;;;22.90;99.90;;;;;;4962843;28;20194;-61
2022/08/12 07:01:06;;;;;;;16.00;7.72;;;22.90;99.90;;;;;;4972969;28;20675;-61
2022/08/12 07:03:32;;;;;;;17.25;7.32;;;23.00;99.90;;;;;;4968490;28;22566;-62
2022/08/12 07:06:04;;;;;;;12.57;7.20;;;23.00;99.90;;;;;;4974045;28;20703;-60
2022/08/12 07:08:32;;;;;;;11.38;7.57;;;23.10;99.90;;;;;;4980266;28;20181;-63
2022/08/12 07:11:01;;;;;;;13.52;7.70;;;23.10;99.90;;;;;;4980375;28;20572;-64
2022/08/12 07:13:37;;;;;;;17.15;7.80;;;23.10;99.90;;;;;;4979724;28;20190;-63
2022/08/12 07:16:04;;;;;;;11.40;7.20;;;23.20;99.90;;;;;;4973335;28;20190;-60
2022/08/12 07:18:31;;;;;;;11.80;7.25;;;23.20;99.90;;;;;;4980956;28;20193;-60
2022/08/12 07:21:03;;;;;;;13.68;7.35;;;23.30;99.90;;;;;;4971833;28;20563;-60
2022/08/12 07:23:32;;;;;;;16.10;7.32;;;23.30;99.90;;;;;;4972865;28;20276;-61
2022/08/12 07:26:01;;;;;;;12.35;6.82;;;23.30;99.90;;;;;;4973025;28;20272;-59
2022/08/12 07:28:29;;;;;;;12.60;6.88;;;23.40;99.90;;;;;;4980623;28;20241;-62
2022/08/12 07:30:57;;;;;;;13.27;6.57;;;23.50;99.90;;;;;;4968258;28;20222;-58
2022/08/12 07:33:27;;;;;;;12.88;7.07;;;23.50;99.90;;;;;;4957542;28;20186;-63
2022/08/12 07:35:55;;;;;;;17.80;6.25;;;23.60;99.90;;;;;;4974256;28;20281;-62
2022/08/12 07:38:33;;;;;;;11.02;6.75;;;23.60;99.90;;;;;;4993316;28;20189;-63
2022/08/12 07:41:10;;;;;;;12.73;7.00;;;23.70;99.90;;;;;;4976254;28;20213;-61
2022/08/12 07:43:39;;;;;;;9.27;6.50;;;23.70;99.90;;;;;;4974231;28;20209;-62
2022/08/12 07:46:08;;;;;;;13.18;6.45;;;23.80;99.90;;;;;;4972259;28;20182;-61
2022/08/12 07:48:44;;;;;;;13.90;6.47;;;23.90;99.90;;;;;;4993705;28;20193;-62
2022/08/12 07:51:11;;;;;;;14.52;6.30;;;23.90;99.90;;;;;;4980707;28;20189;-61
2022/08/12 07:53:37;;;;;;;10.52;5.85;;;24.00;99.90;;;;;;4974522;28;20535;-62
2022/08/12 07:56:05;;;;;;;12.02;6.10;;;24.10;99.90;;;;;;4968733;28;20193;-63
2022/08/12 07:58:32;;;;;;;11.40;5.57;;;24.10;99.90;;;;;;4961826;28;20190;-65
2022/08/12 08:01:04;;;;;;;10.05;5.88;;;24.20;99.80;;;;;;4971111;28;20668;-63
2022/08/12 08:03:30;;;;;;;9.27;5.55;;;24.30;99.70;;;;;;4963401;28;20205;-63
2022/08/12 08:05:57;;;;;;;11.80;5.72;;;24.40;99.70;;;;;;4972629;28;20201;-63
2022/08/12 08:08:26;;;;;;;10.63;5.30;;;24.40;99.50;;;;;;4972512;28;20554;-65
2022/08/12 08:12:52;;;;;;;8.60;5.68;;;24.50;99.40;;;;;;4973812;28;20309;-63
2022/08/12 08:13:43;;;;;;;8.13;5.45;;;24.60;99.20;;;;;;4965946;28;20182;-62
2022/08/12 08:16:09;;;;;;;13.25;5.35;;;24.70;99.00;;;;;;4968347;28;20189;-63
2022/08/12 08:18:36;;;;;;;9.27;4.90;;;24.80;98.70;;;;;;4960392;28;20182;-63
2022/08/12 08:21:03;;;;;;;9.80;5.40;;;24.90;98.30;;;;;;4968169;28;20219;-63
2022/08/12 08:26:15;;;;;;;11.18;4.85;;;25.10;97.70;;;;;;4966360;28;22088;-59
2022/08/12 08:28:43;;;;;;;9.25;5.18;;;25.20;97.40;;;;;;4970167;28;20221;-65
2022/08/12 08:31:11;;;;;;;9.38;5.10;;;25.20;97.20;;;;;;4965905;28;20181;-58
2022/08/12 08:33:37;;;;;;;7.72;4.70;;;25.40;95.90;;;;;;4971558;28;20202;-61
2022/08/12 08:36:05;;;;;;;14.02;4.68;;;25.40;95.70;;;;;;4974506;28;20630;-64
2022/08/12 08:38:31;;;;;;;12.93;4.50;;;25.50;95.50;;;;;;4973097;28;20630;-61
2022/08/12 08:43:41;;;;;;;10.63;4.57;;;25.70;94.50;;;;;;4974469;28;20253;-63
2022/08/12 08:46:08;;;;;;;10.85;4.40;;;25.80;94.20;;;;;;4973021;28;20201;-62
2022/08/12 08:48:34;;;;;;;12.30;4.40;;;25.90;93.80;;;;;;4973292;28;20589;-64
2022/08/12 08:51:01;;;;;;;8.85;4.10;;;25.90;93.50;;;;;;4973086;28;20277;-65
2022/08/12 08:53:27;;;;;;;9.70;4.60;;;26.00;93.40;;;;;;4974297;28;20193;-60
2022/08/12 08:55:53;;;;;;;11.43;4.25;;;26.10;93.10;;;;;;4973850;28;20182;-64
2022/08/12 08:58:22;;;;;;;6.55;4.22;;;26.20;92.90;;;;;;4974341;28;20585;-60
2022/08/12 09:00:50;;;;;;;13.40;4.80;;;26.20;92.40;;;;;;4973871;28;20197;-64
2022/08/12 09:03:17;;;;;;;8.20;4.60;;;26.30;92.10;;;;;;4972649;28;20209;-64
2022/08/12 09:05:43;;;;;;;11.95;4.53;;;26.40;91.70;;;;;;4974196;28;20273;-64
2022/08/12 09:08:10;;;;;;;6.72;4.15;;;26.50;91.50;;;;;;4973933;28;20655;-60
2022/08/12 09:10:37;;;;;;;9.68;3.85;;;26.50;91.00;;;;;;4974193;28;20177;-62
2022/08/12 09:13:46;;;;;;;12.32;3.88;;;26.60;90.60;;;;;;4973037;28;20276;-61
2022/08/12 09:15:53;;;;;;;6.38;3.95;;;26.70;90.20;;;;;;4968751;28;20212;-60
2022/08/12 09:18:19;;;;;;;10.20;4.00;;;26.80;89.40;;;;;;4973872;28;20189;-61
2022/08/12 09:20:49;;;;;;;9.70;3.65;;;26.80;88.90;;;;;;4972978;28;20664;-61
2022/08/12 09:23:16;;;;;;;8.52;4.00;;;26.90;88.00;;;;;;4973179;28;20266;-60
2022/08/12 09:25:47;;;;;;;13.27;4.35;;;27.00;86.70;;;;;;4973393;28;20519;-61
2022/08/12 09:28:13;;;;;;;6.22;3.70;;;27.10;86.00;;;;;;4968079;28;20232;-60
2022/08/12 09:30:50;;;;;;;8.68;3.80;;;27.10;85.50;;;;;;4978322;28;20193;-61
2022/08/12 09:33:16;;;;;;;12.32;4.03;;;27.30;83.80;;;;;;4977408;28;20173;-61
2022/08/12 09:35:45;;;;;;;12.57;3.72;;;27.30;82.40;;;;;;4977723;28;20181;-61
2022/08/12 09:38:16;;;;;;;14.40;4.28;;;27.40;81.00;;;;;;4976474;28;20613;-61
2022/08/12 09:40:43;;;;;;;14.25;4.07;;;27.50;79.40;;;;;;4978037;28;20173;-61
2022/08/12 09:45:54;;;;;;;23.92;5.90;;;27.70;77.30;;;;;;4976779;28;20182;-45
2022/08/12 09:48:20;;;;;;;15.73;5.82;;;27.80;77.10;;;;;;4977519;28;20528;-59
2022/08/12 09:50:49;;;;;;;7.25;3.35;;;27.80;77.40;;;;;;4977094;28;20474;-50
2022/08/12 09:53:22;;;;;;;14.23;4.03;;;27.90;76.00;;;;;;4975509;28;20186;-54
2022/08/12 09:55:56;;;;;;;9.88;3.72;;;28.00;74.80;;;;;;4974619;28;20276;-53
2022/08/12 09:58:27;;;;;;;9.30;3.85;;;28.10;73.00;;;;;;4985517;28;20186;-63
2022/08/12 10:01:03;;;;;;;12.43;3.63;;;28.20;71.80;;;;;;4973664;28;20193;-68
2022/08/12 10:03:35;;;;;;;7.18;3.90;;;28.30;71.40;;;;;;4987222;28;20208;-62
2022/08/12 10:06:06;;;;;;;6.80;3.80;;;28.40;70.00;;;;;;4974700;28;20181;-64
2022/08/12 10:08:34;;;;;;;9.80;3.95;;;28.50;69.90;;;;;;4989629;28;20192;-72
2022/08/12 10:13:51;;;;;;;12.20;4.05;;;28.70;69.10;;;;;;4967320;28;20190;-69
2022/08/12 10:16:27;;;;;;;6.70;3.45;;;28.80;69.00;;;;;;4965290;28;20204;-68
2022/08/12 10:19:02;;;;;;;17.50;4.22;;;28.90;68.00;;;;;;4965978;28;20201;-65
2022/08/12 10:21:35;;;;;;;15.10;3.78;;;29.00;67.80;;;;;;4974562;28;20187;-66
2022/08/12 10:24:04;;;;;;;12.60;3.45;;;29.10;68.10;;;;;;4967002;28;20217;-66
2022/08/12 10:32:13;;;;;;;12.30;3.90;;;29.30;65.20;;;;;;4978455;28;20232;-63
2022/08/12 10:34:44;;;;;;;8.88;3.78;;;29.40;64.40;;;;;;4980543;28;20231;-68
2022/08/12 10:37:17;;;;;;;5.20;3.33;;;29.60;64.60;;;;;;4974170;28;20174;-70
2022/08/12 10:39:50;;;;;;;8.45;4.13;;;29.70;63.80;;;;;;4984325;28;20185;-66
2022/08/12 10:45:08;;;;;;;18.23;4.03;;;29.90;61.90;;;;;;4972027;28;20193;-71
2022/08/12 10:47:36;;;;;;;12.68;3.80;;;30.00;61.90;;;;;;4983721;28;20185;-68
2022/08/12 10:50:06;;;;;;;11.82;3.88;;;30.10;59.80;;;;;;4976048;28;20261;-70
2022/08/12 10:52:38;;;;;;;14.25;3.40;;;30.20;58.90;;;;;;4972090;28;20186;-67
2022/08/12 10:55:04;;;;;;;11.10;3.55;;;30.30;57.90;;;;;;4974096;28;20204;-67
2022/08/12 10:57:30;;;;;;;9.18;3.47;;;30.40;57.20;;;;;;4984214;28;20636;-65
2022/08/12 10:59:58;;;;;;;5.78;3.00;;;30.50;56.90;;;;;;4996271;28;20271;-65
2022/08/12 11:02:27;;;;;;;12.43;3.50;;;30.60;56.30;;;;;;4988322;28;20200;-67
2022/08/12 11:04:58;;;;;;;11.65;3.88;;;30.70;56.00;;;;;;4975826;28;20225;-65
2022/08/12 11:07:26;;;;;;;12.55;3.47;;;30.80;56.00;;;;;;4985247;28;20189;-66
2022/08/12 11:09:52;;;;;;;11.35;3.58;;;30.90;55.60;;;;;;4975399;28;20189;-65
2022/08/12 11:12:18;;;;;;;6.47;3.50;;;31.00;55.60;;;;;;4983383;28;20189;-66
2022/08/12 11:14:44;;;;;;;6.80;3.22;;;31.10;54.80;;;;;;4995571;28;20180;-65
2022/08/12 11:17:12;;;;;;;7.28;3.72;;;31.10;54.10;;;;;;4991640;28;20196;-65
2022/08/12 11:19:39;;;;;;;7.57;3.22;;;31.20;53.40;;;;;;4977164;28;20200;-66
2022/08/12 11:22:07;;;;;;;8.80;3.20;;;31.40;52.40;;;;;;4981839;28;20581;-66
2022/08/12 11:24:33;;;;;;;8.18;3.38;;;31.40;51.50;;;;;;4987757;28;20220;-65
2022/08/12 11:27:02;;;;;;;6.38;3.33;;;31.50;50.80;;;;;;4981152;28;20193;-66
2022/08/12 11:29:28;;;;;;;11.82;4.43;;;31.60;51.70;;;;;;4995026;28;20231;-66
2022/08/12 11:31:54;;;;;;;8.65;3.20;;;31.70;52.00;;;;;;4991700;28;20283;-66
2022/08/12 11:34:20;;;;;;;10.90;3.58;;;31.80;52.10;;;;;;4975448;28;20280;-66
2022/08/12 11:36:54;;;;;;;8.25;3.38;;;31.90;51.60;;;;;;4979038;28;20288;-67
2022/08/12 11:39:21;;;;;;;5.78;3.20;;;32.00;50.00;;;;;;4994886;28;20188;-66
2022/08/12 11:41:47;;;;;;;8.20;3.40;;;32.10;48.90;;;;;;4989047;28;20199;-66
2022/08/12 11:44:13;;;;;;;11.25;3.38;;;32.20;48.50;;;;;;4994487;28;20569;-67
2022/08/12 11:46:40;;;;;;;10.30;3.35;;;32.30;46.50;;;;;;4986666;28;20208;-66
2022/08/12 11:49:06;;;;;;;9.68;3.13;;;32.30;44.40;;;;;;4994647;28;20587;-65
2022/08/12 11:51:33;;;;;;;7.65;2.80;;;32.40;43.30;;;;;;4991121;28;20193;-65
2022/08/12 11:54:00;;;;;;;8.35;2.83;;;32.50;43.40;;;;;;4976811;28;20189;-65
2022/08/12 11:56:26;;;;;;;4.30;2.75;;;32.60;43.20;;;;;;4977271;28;20268;-66
2022/08/12 11:58:53;;;;;;;4.53;3.08;;;32.70;42.60;;;;;;4974037;28;20173;-73
2022/08/12 12:01:20;;;;;;;11.07;2.80;;;32.70;42.30;;;;;;4972429;28;20220;-67
2022/08/12 12:03:45;;;;;;;9.95;3.20;;;32.80;42.50;;;;;;4973918;28;20225;-66
2022/08/12 12:06:12;;;;;;;8.65;3.10;;;32.90;42.90;;;;;;4972850;28;20193;-69
2022/08/12 12:08:38;;;;;;;11.18;3.30;;;33.00;43.40;;;;;;4955992;28;20182;-69
2022/08/12 12:11:04;;;;;;;6.70;3.30;;;33.00;43.40;;;;;;4956235;29;20269;-66
2022/08/12 12:13:30;;;;;;;9.00;3.63;;;33.20;43.20;;;;;;4966658;28;20271;-71
2022/08/12 12:15:56;;;;;;;10.25;2.83;;;33.20;41.70;;;;;;4974486;28;20663;-68
2022/08/12 12:18:26;;;;;;;6.53;3.00;;;33.30;41.10;;;;;;4957961;28;20174;-70
2022/08/12 12:20:55;;;;;;;5.35;2.80;;;33.30;39.70;;;;;;4972949;28;20212;-71
2022/08/12 12:23:21;;;;;;;9.52;3.42;;;33.30;40.10;;;;;;4955529;28;20222;-72
2022/08/12 12:25:47;;;;;;;10.93;3.30;;;33.40;40.20;;;;;;4973417;28;20204;-67
2022/08/12 12:28:13;;;;;;;8.05;3.20;;;33.50;40.20;;;;;;4972728;28;20229;-70
2022/08/12 12:30:39;;;;;;;13.57;3.08;;;33.60;39.70;;;;;;4972919;28;20544;-71
2022/08/12 12:33:07;;;;;;;8.15;3.00;;;33.60;39.40;;;;;;4972135;28;20272;-66
2022/08/12 12:35:34;;;;;;;4.38;3.05;;;33.70;39.50;;;;;;4971623;28;20676;-68
2022/08/12 12:38:04;;;;;;;6.00;2.55;;;33.80;39.00;;;;;;4973423;28;20189;-67
2022/08/12 12:40:31;;;;;;;5.88;3.28;;;33.90;38.00;;;;;;4974607;28;20271;-68
2022/08/12 12:42:58;;;;;;;8.38;2.65;;;33.90;37.50;;;;;;4974493;28;20223;-64
2022/08/12 12:45:25;;;;;;;8.25;2.80;;;34.00;37.40;;;;;;4975557;28;20181;-69
2022/08/12 12:48:12;;;;;;;8.63;3.28;;;34.00;37.60;;;;;;4974608;28;20178;-68
2022/08/12 12:50:39;;;;;;;8.50;2.90;;;34.00;37.40;;;;;;4973124;28;20209;-67
2022/08/12 12:53:07;;;;;;;5.82;2.50;;;34.10;37.60;;;;;;4971279;28;20503;-69
2022/08/12 12:55:36;;;;;;;6.03;2.83;;;34.20;37.50;;;;;;4974515;28;20185;-68
2022/08/12 12:58:10;;;;;;;8.43;3.00;;;34.20;37.40;;;;;;4969462;28;20276;-67
2022/08/12 13:00:39;;;;;;;16.67;3.00;;;34.30;37.50;;;;;;4974384;28;20181;-68
2022/08/12 13:03:05;;;;;;;10.70;3.17;;;34.30;37.60;;;;;;4973574;28;20673;-66
2022/08/12 13:05:37;;;;;;;9.60;2.70;;;34.30;37.20;;;;;;4970959;28;20194;-69
2022/08/12 13:08:25;;;;;;;11.68;3.30;;;34.30;36.90;;;;;;4974596;28;20189;-66
2022/08/12 13:10:53;;;;;;;5.53;2.78;;;34.30;36.90;;;;;;4974336;28;20264;-68
2022/08/12 13:13:20;;;;;;;6.88;2.80;;;34.40;36.90;;;;;;4974568;28;20185;-74
2022/08/12 13:15:48;;;;;;;10.88;2.83;;;34.40;37.00;;;;;;4974173;28;20218;-67
2022/08/12 13:18:16;;;;;;;8.43;2.80;;;34.40;37.10;;;;;;4974772;28;20185;-64
2022/08/12 13:20:43;;;;;;;11.68;2.63;;;34.50;36.30;;;;;;4972714;28;20251;-67
2022/08/12 13:23:11;;;;;;;8.82;2.95;;;34.60;36.30;;;;;;4974656;28;20287;-65
2022/08/12 13:25:40;;;;;;;11.55;2.70;;;34.60;36.50;;;;;;4973560;28;20186;-63
2022/08/12 13:28:07;;;;;;;7.63;2.80;;;34.70;36.50;;;;;;4973479;28;20185;-65
2022/08/12 13:30:35;;;;;;;5.18;2.58;;;34.70;36.40;;;;;;4969915;28;20601;-59
2022/08/12 13:33:01;;;;;;;4.95;2.67;;;34.80;37.00;;;;;;4971411;28;20189;-61
2022/08/12 13:35:29;;;;;;;15.10;2.95;;;34.80;37.00;;;;;;4972226;28;20276;-55
2022/08/12 13:37:56;;;;;;;8.73;3.15;;;34.80;36.50;;;;;;4971274;28;20190;-52
2022/08/12 13:40:24;;;;;;;4.28;2.70;;;34.80;36.20;;;;;;4972844;28;20526;-49
2022/08/12 13:42:56;;;;;;;7.10;2.63;;;34.80;36.60;;;;;;4973609;28;20219;-55
2022/08/12 13:45:23;;;;;;;7.13;3.10;;;34.80;37.00;;;;;;4969324;28;20183;-50
2022/08/12 13:47:54;;;;;;;7.75;3.00;;;34.70;36.60;;;;;;4957874;28;20224;-54
2022/08/12 13:50:28;;;;;;;6.20;2.90;;;34.80;36.40;;;;;;4973345;28;20241;-54
2022/08/12 13:52:54;;;;;;;11.38;2.80;;;34.80;36.30;;;;;;4973757;28;20268;-58
2022/08/12 13:55:21;;;;;;;9.10;2.92;;;34.80;36.70;;;;;;4973093;28;20185;-55
2022/08/12 13:57:47;;;;;;;9.50;3.20;;;34.80;37.00;;;;;;4973991;28;20200;-52
2022/08/12 14:00:14;;;;;;;11.20;3.13;;;34.80;36.40;;;;;;4973550;28;20551;-51
2022/08/12 14:02:40;;;;;;;7.20;3.55;;;34.80;36.20;;;;;;4973466;28;20169;-57
2022/08/12 14:05:08;;;;;;;11.05;2.85;;;34.80;35.90;;;;;;4966743;28;20593;-59
2022/08/12 14:08:00;;;;;;;9.48;3.30;;;34.90;35.50;;;;;;4970714;28;20200;-54
2022/08/12 14:10:35;;;;;;;7.80;2.60;;;34.90;35.40;;;;;;4973555;28;20716;-55
2022/08/12 14:13:12;;;;;;;3.97;2.75;;;34.90;35.80;;;;;;4973676;28;20637;-54
2022/08/12 14:15:49;;;;;;;5.65;2.53;;;35.00;36.00;;;;;;4976041;28;20185;-56
2022/08/12 14:18:26;;;;;;;4.00;2.88;;;35.10;36.00;;;;;;4972786;28;20189;-54
2022/08/12 14:20:57;;;;;;;10.55;2.67;;;35.10;36.00;;;;;;4984576;28;20188;-57
2022/08/12 14:23:25;;;;;;;8.15;2.60;;;35.10;35.80;;;;;;4975365;28;20735;-59
2022/08/12 14:25:52;;;;;;;16.10;3.00;;;35.10;35.60;;;;;;4973789;28;20218;-57
2022/08/12 14:28:19;;;;;;;7.25;2.70;;;35.10;36.00;;;;;;4991581;28;20262;-59
2022/08/12 14:30:55;;;;;;;6.80;2.70;;;35.10;35.80;;;;;;4976119;28;20192;-58
2022/08/12 14:33:22;;;;;;;4.80;2.67;;;35.10;35.80;;;;;;4979197;28;20185;-59
2022/08/12 14:35:49;;;;;;;12.48;2.65;;;35.20;35.40;;;;;;4976092;28;20207;-60
2022/08/12 14:38:24;;;;;;;4.60;2.28;;;35.20;35.70;;;;;;4975283;28;20272;-56
2022/08/12 14:40:55;;;;;;;6.57;2.38;;;35.20;36.40;;;;;;4974208;28;20193;-57